Time;durP1;ratioP1;P1;durP2;ratioP2;P2;SDS_P1;SDS_P2;PMS_P1;PMS_P2;Temp;Humidity;BMP_temperature;BMP_pressure;BME280_temperature;BME280_humidity;BME280_pressure;Samples;Min_cycle;Max_cycle;Signal;HPM_P1;HPM_P2
2022/10/30 00:00:29;;;;;;;14.07;8.20;;;;;;;15.05;100.00;98541.03;5138203;23;20588;-91
2022/10/30 00:02:34;;;;;;;17.70;9.23;;;;;;;15.06;98.76;98543.53;5162959;23;21150;-92
2022/10/30 00:04:37;;;;;;;11.90;8.00;;;;;;;15.04;98.18;98548.09;5137427;23;20584;-92
2022/10/30 00:06:40;;;;;;;19.63;8.10;;;;;;;15.01;99.93;98539.63;5137975;23;20584;-91
2022/10/30 00:08:43;;;;;;;15.53;8.90;;;;;;;15.01;99.93;98537.81;5137452;23;21183;-92
2022/10/30 00:10:49;;;;;;;18.57;8.77;;;;;;;14.99;100.00;98537.13;5162802;23;20568;-92
2022/10/30 00:12:52;;;;;;;13.00;7.70;;;;;;;14.95;98.82;98540.91;5188303;22;20600;-92
2022/10/30 00:14:55;;;;;;;14.90;7.97;;;;;;;14.92;98.75;98541.16;5162933;23;20562;-91
2022/10/30 00:16:58;;;;;;;12.53;7.83;;;;;;;14.88;98.85;98544.97;5138260;23;20584;-92
2022/10/30 00:19:02;;;;;;;12.00;8.10;;;;;;;14.87;98.82;98545.09;5161587;23;20849;-91
2022/10/30 00:21:07;;;;;;;15.13;8.17;;;;;;;14.84;98.58;98545.34;5137540;23;20577;-92
2022/10/30 00:23:10;;;;;;;15.50;7.87;;;;;;;14.82;98.91;98547.25;5137557;23;20675;-91
2022/10/30 00:25:13;;;;;;;12.97;7.57;;;;;;;14.80;99.26;98538.66;5161735;23;21153;-92
2022/10/30 00:27:16;;;;;;;13.43;7.57;;;;;;;14.76;98.87;98538.09;5162978;23;21166;-91
2022/10/30 00:29:22;;;;;;;15.80;8.33;;;;;;;14.76;98.88;98543.34;5163035;23;20606;-92
2022/10/30 00:31:25;;;;;;;13.73;7.83;;;;;;;14.75;99.47;98541.66;5136042;23;21108;-91
2022/10/30 00:33:28;;;;;;;21.30;7.67;;;;;;;14.74;98.76;98536.53;5162688;23;20584;-91
2022/10/30 00:35:33;;;;;;;12.90;7.40;;;;;;;14.72;98.00;98536.63;5137781;23;20580;-92
2022/10/30 00:37:37;;;;;;;15.60;7.50;;;;;;;14.71;98.17;98539.38;5137561;23;21214;-91
2022/10/30 00:39:43;;;;;;;12.50;8.13;;;;;;;14.70;99.38;98535.94;5137370;23;20585;-92
2022/10/30 00:41:46;;;;;;;13.87;7.57;;;;;;;14.71;98.47;98536.75;5136915;23;20588;-91
2022/10/30 00:43:49;;;;;;;10.83;6.93;;;;;;;14.67;98.15;98536.16;5163097;23;20560;-92
2022/10/30 00:45:53;;;;;;;20.93;7.60;;;;;;;14.64;98.69;98536.41;5162476;23;20726;-92
2022/10/30 00:47:59;;;;;;;20.90;7.97;;;;;;;14.60;97.89;98529.72;5138095;23;20586;-91
2022/10/30 00:50:06;;;;;;;16.40;7.73;;;;;;;14.59;98.14;98532.44;5137746;23;20692;-92
2022/10/30 00:52:11;;;;;;;12.13;7.40;;;;;;;14.57;97.84;98528.25;5163357;23;21146;-91
2022/10/30 00:54:16;;;;;;;15.60;7.10;;;;;;;14.58;99.43;98527.31;5137476;23;21253;-92
2022/10/30 00:56:21;;;;;;;10.33;7.00;;;;;;;14.56;99.02;98529.25;5136144;23;20674;-91
2022/10/30 00:58:29;;;;;;;11.97;7.33;;;;;;;14.54;98.58;98528.50;5136919;23;21116;-92
2022/10/30 01:00:32;;;;;;;24.47;8.03;;;;;;;14.52;99.65;98530.41;5161951;23;20904;-92
2022/10/30 01:02:35;;;;;;;17.70;7.50;;;;;;;14.51;99.75;98528.72;5137543;23;20588;-92
2022/10/30 01:04:41;;;;;;;12.70;6.90;;;;;;;14.50;99.04;98527.09;5136922;23;20711;-91
2022/10/30 01:06:47;;;;;;;12.57;6.60;;;;;;;14.49;98.71;98528.84;5136583;23;20588;-92
2022/10/30 01:08:53;;;;;;;14.93;7.33;;;;;;;14.51;98.70;98533.97;5137031;23;20628;-91
2022/10/30 01:11:03;;;;;;;11.60;6.77;;;;;;;14.51;99.04;98529.59;5161670;23;20600;-92
2022/10/30 01:13:06;;;;;;;10.03;7.07;;;;;;;14.49;98.91;98531.47;5160867;23;21119;-92
2022/10/30 01:15:10;;;;;;;12.53;7.00;;;;;;;14.49;98.54;98535.91;5161349;23;20594;-91
2022/10/30 01:17:27;;;;;;;11.83;6.73;;;;;;;14.51;99.74;98526.09;5135191;23;20585;-92
2022/10/30 01:19:35;;;;;;;12.47;6.40;;;;;;;14.51;99.02;98531.34;5161484;23;20926;-91
2022/10/30 01:21:49;;;;;;;9.93;6.70;;;;;;;14.51;99.52;98532.22;5137950;23;20575;-92
2022/10/30 01:24:08;;;;;;;20.57;7.50;;;;;;;14.50;100.00;98537.59;5137211;23;20604;-91
2022/10/30 01:26:22;;;;;;;14.27;7.07;;;;;;;14.50;99.27;98533.16;5135971;23;20667;-91
2022/10/30 01:28:35;;;;;;;7.80;6.30;;;;;;;14.47;98.94;98524.69;5163955;23;20582;-92
2022/10/30 01:30:50;;;;;;;11.30;6.53;;;;;;;14.51;99.20;98528.72;5137666;23;20579;-91
2022/10/30 01:33:06;;;;;;;14.53;7.37;;;;;;;14.50;100.00;98520.03;5138793;23;20578;-91
2022/10/30 01:35:15;;;;;;;10.17;6.67;;;;;;;14.50;99.61;98522.66;5138096;23;21161;-92
2022/10/30 01:37:22;;;;;;;12.70;6.73;;;;;;;14.50;99.58;98522.66;5163236;23;20593;-92
2022/10/30 01:39:29;;;;;;;18.00;7.10;;;;;;;14.50;99.20;98521.84;5137243;23;20583;-92
2022/10/30 01:41:32;;;;;;;16.90;7.40;;;;;;;14.49;99.92;98515.72;5137769;23;20567;-92
2022/10/30 01:43:36;;;;;;;14.33;7.17;;;;;;;14.50;100.00;98517.41;5137740;23;20924;-92
2022/10/30 01:46:09;;;;;;;11.80;6.37;;;;;;;14.49;100.00;98510.47;5137067;23;20920;-91
2022/10/30 01:48:38;;;;;;;11.77;6.83;;;;;;;14.47;98.93;98508.94;5144348;23;20621;-91
2022/10/30 01:50:47;;;;;;;13.40;6.37;;;;;;;14.41;97.87;98496.28;5137753;23;20596;-91
2022/10/30 01:52:57;;;;;;;13.10;7.20;;;;;;;14.38;99.33;98493.91;5163576;23;20915;-91
2022/10/30 01:55:08;;;;;;;10.03;5.60;;;;;;;14.39;98.43;98498.22;5163057;23;20653;-91
2022/10/30 01:57:17;;;;;;;9.63;6.50;;;;;;;14.38;99.76;98493.91;5163213;23;20576;-91
2022/10/30 01:59:26;;;;;;;12.10;7.03;;;;;;;14.38;100.00;98494.72;5138098;23;20549;-92
2022/10/30 02:01:33;;;;;;;13.27;6.57;;;;;;;14.39;99.17;98488.53;5136493;23;20985;-91
2022/10/30 02:03:38;;;;;;;10.10;6.13;;;;;;;14.38;99.69;98497.34;5138558;23;20762;-91
2022/10/30 02:06:01;;;;;;;13.70;7.20;;;;;;;14.37;99.78;98490.47;5147002;22;20590;-90
2022/10/30 02:08:06;;;;;;;14.40;7.07;;;;;;;14.36;100.00;98478.28;5136704;23;20615;-91
2022/10/30 02:10:14;;;;;;;15.83;6.73;;;;;;;14.36;100.00;98474.81;5162177;23;20628;-92
2022/10/30 02:12:18;;;;;;;11.20;6.40;;;;;;;14.35;100.00;98473.97;5162743;23;20593;-92
2022/10/30 02:14:25;;;;;;;13.57;7.00;;;;;;;14.34;99.07;98476.72;5163513;23;20671;-92
2022/10/30 02:16:29;;;;;;;14.60;6.70;;;;;;;14.33;99.57;98473.25;5138804;23;20595;-91
2022/10/30 02:18:32;;;;;;;12.90;7.27;;;;;;;14.35;99.12;98479.22;5138315;23;20662;-91
2022/10/30 02:20:38;;;;;;;13.10;7.53;;;;;;;14.35;99.04;98483.66;5163231;23;20555;-90
2022/10/30 02:22:42;;;;;;;9.43;6.60;;;;;;;14.34;99.37;98479.34;5190836;22;21266;-92
2022/10/30 02:24:46;;;;;;;12.10;6.30;;;;;;;14.30;99.40;98481.38;5137264;23;20587;-90
2022/10/30 02:26:49;;;;;;;13.23;7.33;;;;;;;14.30;99.62;98483.16;5163797;23;20571;-91
2022/10/30 02:28:53;;;;;;;13.07;6.30;;;;;;;14.30;100.00;98488.41;5137644;23;21012;-90
2022/10/30 02:30:57;;;;;;;11.63;6.37;;;;;;;14.28;100.00;98487.69;5137761;23;20607;-90
2022/10/30 02:33:00;;;;;;;12.83;6.10;;;;;;;14.27;99.38;98486.03;5162902;23;20621;-91
2022/10/30 02:35:05;;;;;;;15.27;6.70;;;;;;;14.25;99.68;98490.53;5137976;23;20610;-91
2022/10/30 02:37:11;;;;;;;14.43;6.90;;;;;;;14.21;99.28;98473.38;5138234;22;20596;-92
2022/10/30 02:39:15;;;;;;;15.50;6.97;;;;;;;14.17;98.95;98471.94;5163399;23;20951;-91
2022/10/30 02:41:18;;;;;;;11.37;7.17;;;;;;;14.18;99.32;98476.25;5163683;23;20582;-91
2022/10/30 02:43:22;;;;;;;10.10;5.97;;;;;;;14.17;99.81;98471.94;5164058;23;21173;-91
2022/10/30 02:45:26;;;;;;;10.90;6.00;;;;;;;14.19;100.00;98481.38;5138532;23;20678;-92
2022/10/30 02:47:29;;;;;;;20.17;7.23;;;;;;;14.21;100.00;98478.63;5137346;23;20629;-91
2022/10/30 02:49:33;;;;;;;11.23;6.63;;;;;;;14.21;100.00;98478.63;5163115;23;20595;-91
2022/10/30 02:51:37;;;;;;;14.13;6.03;;;;;;;14.21;99.58;98482.06;5163200;23;20579;-91
2022/10/30 02:53:42;;;;;;;14.80;5.93;;;;;;;14.20;100.00;98477.78;5138091;23;20582;-90
2022/10/30 02:55:46;;;;;;;9.03;5.77;;;;;;;14.18;99.42;98473.63;5138413;23;20596;-92
2022/10/30 02:57:50;;;;;;;11.30;5.73;;;;;;;14.16;99.45;98471.09;5163621;23;21433;-91
2022/10/30 02:59:53;;;;;;;10.60;5.83;;;;;;;14.13;99.16;98463.47;5163437;23;21024;-91
2022/10/30 03:01:57;;;;;;;11.30;6.43;;;;;;;14.15;99.64;98463.34;5162790;23;20590;-91
2022/10/30 03:04:00;;;;;;;19.87;6.40;;;;;;;14.14;98.95;98461.66;5164258;23;20616;-91
2022/10/30 03:06:06;;;;;;;8.30;5.87;;;;;;;14.15;100.00;98463.34;5138774;23;20593;-90
2022/10/30 03:08:10;;;;;;;13.37;7.60;;;;;;;14.19;99.70;98470.00;5139179;23;20605;-91
2022/10/30 03:10:15;;;;;;;10.40;5.93;;;;;;;14.19;99.38;98477.88;5138073;23;20612;-90
2022/10/30 03:12:18;;;;;;;13.53;5.80;;;;;;;14.17;100.00;98477.19;5136769;23;20642;-92
2022/10/30 03:14:22;;;;;;;12.63;6.77;;;;;;;14.18;100.00;98478.84;5137132;23;20605;-91
2022/10/30 03:16:29;;;;;;;14.90;6.60;;;;;;;14.18;100.00;98478.84;5162162;23;20577;-91
2022/10/30 03:18:33;;;;;;;17.27;6.90;;;;;;;14.18;99.91;98478.84;5164359;23;20579;-91
2022/10/30 03:20:42;;;;;;;9.13;6.33;;;;;;;14.17;99.69;98477.19;5163535;23;20602;-91
2022/10/30 03:22:47;;;;;;;17.27;6.43;;;;;;;14.17;100.00;98474.56;5138823;23;20587;-91
2022/10/30 03:24:50;;;;;;;11.57;6.60;;;;;;;14.13;99.45;98471.34;5163497;23;20706;-91
2022/10/30 03:26:55;;;;;;;9.57;5.80;;;;;;;14.13;99.33;98480.97;5161911;23;20590;-91
2022/10/30 03:28:59;;;;;;;10.90;6.30;;;;;;;14.12;100.00;98476.69;5138871;23;20577;-90
2022/10/30 03:31:05;;;;;;;11.87;5.60;;;;;;;14.11;100.00;98476.81;5186952;22;21558;-92
2022/10/30 03:33:09;;;;;;;13.13;6.70;;;;;;;14.09;99.94;98479.56;5138870;23;20592;-91
2022/10/30 03:35:12;;;;;;;11.37;6.10;;;;;;;14.11;100.00;98474.19;5136358;23;20579;-91
2022/10/30 03:37:16;;;;;;;12.10;6.17;;;;;;;14.09;100.00;98481.31;5138592;23;21149;-91
2022/10/30 03:39:20;;;;;;;12.33;6.10;;;;;;;14.09;100.00;98490.06;5163406;23;20744;-91
2022/10/30 03:41:23;;;;;;;11.83;5.90;;;;;;;14.08;100.00;98488.38;5161481;23;20578;-91
2022/10/30 03:43:29;;;;;;;10.20;5.93;;;;;;;14.05;99.25;98483.34;5137625;23;20650;-91
2022/10/30 03:45:33;;;;;;;9.87;5.70;;;;;;;14.02;99.92;98480.94;5162279;23;20678;-91
2022/10/30 03:47:40;;;;;;;11.60;5.90;;;;;;;14.01;100.00;98492.41;5164052;23;20569;-92
2022/10/30 03:49:44;;;;;;;10.47;5.30;;;;;;;13.97;99.51;98485.69;5137191;23;20587;-91
2022/10/30 03:51:52;;;;;;;10.10;5.73;;;;;;;13.99;99.53;98486.41;5162836;23;20632;-90
2022/10/30 03:53:57;;;;;;;12.60;5.60;;;;;;;13.98;99.30;98486.53;5162133;22;20656;-91
2022/10/30 03:56:04;;;;;;;9.63;5.27;;;;;;;13.93;98.94;98497.34;5162364;23;20934;-91
2022/10/30 03:58:17;;;;;;;8.83;5.27;;;;;;;13.88;98.41;98498.66;5161966;23;20598;-91
2022/10/30 04:00:22;;;;;;;11.30;6.53;;;;;;;13.90;98.98;98504.63;5162749;23;20614;-91
2022/10/30 04:02:32;;;;;;;16.03;7.07;;;;;;;13.85;98.47;98502.34;5162513;23;20938;-91
2022/10/30 04:04:35;;;;;;;10.73;6.20;;;;;;;13.82;99.07;98507.00;5136537;23;20827;-90
2022/10/30 04:06:38;;;;;;;10.47;5.70;;;;;;;13.78;98.22;98514.22;5138612;23;20628;-91
2022/10/30 04:08:42;;;;;;;13.80;5.73;;;;;;;13.74;98.60;98496.22;5137192;23;20598;-91
2022/10/30 04:10:46;;;;;;;10.00;5.67;;;;;;;13.71;97.72;98499.94;5163387;23;20664;-91
2022/10/30 04:12:50;;;;;;;13.60;6.20;;;;;;;13.71;97.82;98504.31;5137516;23;20575;-90
2022/10/30 04:14:53;;;;;;;20.73;6.17;;;;;;;13.71;98.53;98499.06;5137754;23;20583;-90
2022/10/30 04:16:57;;;;;;;9.90;5.63;;;;;;;13.70;98.43;98492.19;5189289;22;20585;-90
2022/10/30 04:19:00;;;;;;;14.00;5.73;;;;;;;13.66;98.57;98491.53;5137723;23;20599;-91
2022/10/30 04:21:04;;;;;;;9.53;5.07;;;;;;;13.68;98.90;98489.66;5137285;23;20583;-90
2022/10/30 04:23:13;;;;;;;15.00;8.03;;;;;;;13.67;98.75;98485.38;5135292;23;20622;-91
2022/10/30 04:25:16;;;;;;;19.60;6.10;;;;;;;13.64;98.82;98492.63;5162532;23;20581;-91
2022/10/30 04:27:20;;;;;;;13.60;5.67;;;;;;;13.62;98.69;98494.53;5161586;23;20567;-90
2022/10/30 04:29:24;;;;;;;12.37;6.07;;;;;;;13.61;98.63;98494.66;5137616;23;21187;-91
2022/10/30 04:31:27;;;;;;;12.57;6.27;;;;;;;13.62;99.20;98498.91;5136065;23;20649;-90
2022/10/30 04:33:32;;;;;;;14.57;5.73;;;;;;;13.62;99.21;98504.16;5132200;23;20583;-90
2022/10/30 04:35:37;;;;;;;13.83;6.33;;;;;;;13.61;99.45;98498.09;5137297;23;20625;-91
2022/10/30 04:37:52;;;;;;;11.40;5.83;;;;;;;13.59;99.29;98500.00;5137435;23;20682;-91
2022/10/30 04:39:55;;;;;;;14.17;5.70;;;;;;;13.58;98.58;98503.56;5188418;22;21442;-90
2022/10/30 04:42:01;;;;;;;13.07;5.40;;;;;;;13.56;98.43;98491.50;5162888;23;21060;-91
2022/10/30 04:44:08;;;;;;;12.10;5.73;;;;;;;13.58;99.53;98497.50;5137946;23;20594;-91
2022/10/30 04:46:11;;;;;;;10.53;5.93;;;;;;;13.57;99.37;98491.41;5161873;23;20645;-91
2022/10/30 04:48:15;;;;;;;11.03;5.30;;;;;;;13.57;99.18;98501.06;5136302;23;20580;-91
2022/10/30 04:50:20;;;;;;;11.20;5.53;;;;;;;13.55;99.35;98500.34;5136521;23;20606;-91
2022/10/30 04:52:23;;;;;;;11.73;6.00;;;;;;;13.53;99.45;98499.59;5137741;23;20617;-91
2022/10/30 04:54:27;;;;;;;12.83;5.90;;;;;;;13.53;99.56;98494.34;5136567;23;20572;-92
2022/10/30 04:56:31;;;;;;;15.90;5.73;;;;;;;13.53;99.18;98494.34;5163153;23;21486;-91
2022/10/30 04:58:34;;;;;;;11.20;6.13;;;;;;;13.50;98.96;98500.69;5137526;23;21115;-90
2022/10/30 05:00:40;;;;;;;13.00;5.47;;;;;;;13.47;98.88;98500.03;5187125;22;21130;-90
2022/10/30 05:02:48;;;;;;;13.47;5.93;;;;;;;13.46;98.92;98498.41;5191504;22;20588;-91
2022/10/30 05:04:51;;;;;;;9.23;5.63;;;;;;;13.45;98.97;98496.72;5137608;23;20587;-89
2022/10/30 05:06:56;;;;;;;12.33;5.60;;;;;;;13.44;98.67;98501.13;5164002;23;20577;-90
2022/10/30 05:08:59;;;;;;;8.20;4.90;;;;;;;13.45;98.75;98492.28;5161171;22;20620;-90
2022/10/30 05:11:09;;;;;;;11.17;5.50;;;;;;;13.46;98.69;98493.16;5138063;23;20697;-90
2022/10/30 05:13:12;;;;;;;9.50;5.10;;;;;;;13.43;99.25;98488.13;5139741;23;20611;-90
2022/10/30 05:15:17;;;;;;;10.13;5.90;;;;;;;13.45;98.79;98486.22;5136682;23;20653;-90
2022/10/30 05:17:20;;;;;;;14.07;5.17;;;;;;;13.43;98.25;98482.91;5164704;23;20588;-91
2022/10/30 05:19:25;;;;;;;8.60;5.43;;;;;;;13.44;98.79;98481.94;5138141;23;20650;-90
2022/10/30 05:21:31;;;;;;;12.00;5.80;;;;;;;13.43;98.80;98488.97;5139367;23;20583;-90
2022/10/30 05:23:36;;;;;;;11.93;5.27;;;;;;;13.43;98.86;98481.09;5189734;22;20612;-90
2022/10/30 05:25:40;;;;;;;10.50;5.40;;;;;;;13.43;98.59;98482.91;5139253;23;20582;-91
2022/10/30 05:27:46;;;;;;;8.80;5.10;;;;;;;13.42;98.58;98481.22;5164042;23;20585;-91
2022/10/30 05:29:49;;;;;;;12.83;6.30;;;;;;;13.39;99.16;98477.03;5163484;23;20620;-90
2022/10/30 05:31:52;;;;;;;10.37;6.13;;;;;;;13.39;98.24;98482.25;5138089;23;20700;-91
2022/10/30 05:34:28;;;;;;;12.97;5.70;;;;;;;13.38;98.25;98488.47;5159356;23;21133;-91
2022/10/30 05:36:31;;;;;;;12.13;5.57;;;;;;;13.37;98.36;98480.72;5137686;23;20555;-91
2022/10/30 05:38:36;;;;;;;11.67;5.57;;;;;;;13.33;98.35;98480.09;5138025;23;20665;-91
2022/10/30 05:40:42;;;;;;;17.33;6.67;;;;;;;13.32;97.91;98480.19;5164121;23;20585;-90
2022/10/30 05:42:45;;;;;;;12.10;6.00;;;;;;;13.28;97.22;98476.97;5164470;23;20692;-92
2022/10/30 05:44:49;;;;;;;12.57;5.37;;;;;;;13.27;97.58;98482.34;5138664;23;21018;-91
2022/10/30 05:47:11;;;;;;;12.70;6.50;;;;;;;13.24;98.41;98477.31;5139766;23;20959;-92
2022/10/30 05:49:17;;;;;;;9.83;5.47;;;;;;;13.22;98.40;98473.97;5139725;23;20615;-91
2022/10/30 05:51:21;;;;;;;13.10;5.50;;;;;;;13.23;98.33;98478.28;5164623;23;20558;-92
2022/10/30 05:53:28;;;;;;;13.23;6.20;;;;;;;13.22;98.51;98484.47;5139111;23;20710;-91
2022/10/30 05:55:35;;;;;;;8.70;5.63;;;;;;;13.20;98.58;98486.38;5138781;23;20597;-91
2022/10/30 05:57:45;;;;;;;12.13;5.87;;;;;;;13.19;97.56;98485.50;5138760;23;20575;-91
2022/10/30 05:59:48;;;;;;;9.83;5.50;;;;;;;13.17;97.52;98481.34;5139373;23;20579;-91
2022/10/30 06:01:51;;;;;;;11.60;5.50;;;;;;;13.16;97.57;98482.28;5137169;23;20701;-91
2022/10/30 06:03:55;;;;;;;13.10;5.70;;;;;;;13.16;98.19;98482.28;5164527;23;20582;-88
2022/10/30 06:05:58;;;;;;;13.47;5.57;;;;;;;13.16;97.97;98484.06;5163014;23;20609;-89
2022/10/30 06:08:02;;;;;;;14.47;6.20;;;;;;;13.15;97.39;98477.97;5139408;23;20634;-91
2022/10/30 06:10:05;;;;;;;8.57;5.10;;;;;;;13.13;97.75;98485.13;5138104;23;20607;-92
2022/10/30 06:12:29;;;;;;;12.70;5.47;;;;;;;13.09;97.84;98475.81;5162027;23;20618;-92
2022/10/30 06:14:50;;;;;;;10.63;5.40;;;;;;;13.10;98.17;98485.34;5162334;23;20579;-90
2022/10/30 06:16:53;;;;;;;11.07;6.07;;;;;;;13.09;98.26;98481.03;5137365;23;20587;-90
2022/10/30 06:19:09;;;;;;;13.43;6.93;;;;;;;13.09;98.16;98483.66;5137872;23;20582;-90
2022/10/30 06:21:20;;;;;;;19.03;9.73;;;;;;;13.09;97.74;98491.50;5163456;23;20570;-90
2022/10/30 06:23:31;;;;;;;10.37;6.53;;;;;;;13.08;98.12;98489.88;5138844;23;20629;-90
2022/10/30 06:25:41;;;;;;;16.07;6.00;;;;;;;13.10;98.20;98492.38;5138039;23;20581;-90
2022/10/30 06:27:50;;;;;;;9.90;5.27;;;;;;;13.09;97.74;98494.13;5139498;23;20577;-90
2022/10/30 06:29:53;;;;;;;10.80;5.40;;;;;;;13.07;97.48;98488.19;5164582;23;21208;-90
2022/10/30 06:31:57;;;;;;;15.93;6.43;;;;;;;13.05;97.87;98495.31;5139309;23;20666;-90
2022/10/30 06:34:04;;;;;;;15.30;5.37;;;;;;;13.07;97.71;98497.81;5136428;23;20582;-90
2022/10/30 06:36:09;;;;;;;10.43;6.73;;;;;;;13.07;97.36;98492.59;5163377;23;21086;-90
2022/10/30 06:38:13;;;;;;;13.07;5.97;;;;;;;13.08;98.34;98495.09;5138353;23;20759;-90
2022/10/30 06:40:17;;;;;;;9.50;5.57;;;;;;;13.09;98.33;98496.75;5139341;23;21218;-90
2022/10/30 06:42:50;;;;;;;11.23;5.80;;;;;;;13.10;98.95;98500.22;5157753;23;21002;-90
2022/10/30 06:45:17;;;;;;;12.40;5.70;;;;;;;13.14;98.74;98507.75;5163504;23;20636;-90
2022/10/30 06:47:20;;;;;;;10.80;5.53;;;;;;;13.21;98.26;98506.34;5163983;23;20674;-90
2022/10/30 06:49:23;;;;;;;8.90;5.40;;;;;;;13.30;99.01;98503.06;5138478;23;20586;-90
2022/10/30 06:51:27;;;;;;;8.10;5.57;;;;;;;13.37;98.62;98499.88;5138573;23;20973;-90
2022/10/30 06:53:30;;;;;;;8.70;5.60;;;;;;;13.46;98.85;98499.22;5138575;23;20641;-90
2022/10/30 06:55:55;;;;;;;10.07;5.73;;;;;;;13.57;98.31;98501.88;5142415;22;20969;-90
2022/10/30 06:58:21;;;;;;;12.10;5.23;;;;;;;13.78;98.44;98518.66;5164255;23;20584;-92
2022/10/30 07:00:30;;;;;;;9.07;5.50;;;;;;;13.88;97.93;98507.38;5162062;23;20562;-92
2022/10/30 07:03:08;;;;;;;10.00;5.80;;;;;;;14.03;98.19;98515.88;5112241;23;21145;-92
2022/10/30 07:05:12;;;;;;;16.77;6.33;;;;;;;14.17;97.33;98519.16;5115916;23;20586;-92
2022/10/30 07:07:15;;;;;;;9.90;5.67;;;;;;;14.34;97.20;98511.69;5137603;23;21224;-92
2022/10/30 07:09:18;;;;;;;15.03;6.53;;;;;;;14.52;96.53;98522.53;5162617;22;20663;-92
2022/10/30 07:11:22;;;;;;;14.00;6.30;;;;;;;14.64;96.19;98523.28;5138195;23;21062;-92
2022/10/30 07:13:53;;;;;;;10.00;6.23;;;;;;;14.74;94.39;98524.22;5128469;23;20665;-91
2022/10/30 07:16:05;;;;;;;13.10;6.27;;;;;;;14.85;94.83;98529.44;5138938;23;21250;-91
2022/10/30 07:18:15;;;;;;;12.87;6.10;;;;;;;15.00;94.93;98527.44;5161402;23;20603;-90
2022/10/30 07:20:19;;;;;;;8.93;5.30;;;;;;;15.11;95.94;98531.72;5139798;23;20616;-90
2022/10/30 07:22:22;;;;;;;9.53;6.03;;;;;;;15.22;95.31;98536.97;5163115;23;20972;-89
2022/10/30 07:24:28;;;;;;;7.90;5.67;;;;;;;15.31;93.54;98532.78;5135661;23;20593;-90
2022/10/30 07:26:49;;;;;;;12.73;6.30;;;;;;;15.44;92.69;98530.84;5163804;23;20604;-91
2022/10/30 07:29:17;;;;;;;11.50;6.10;;;;;;;15.56;93.89;98528.91;5138931;23;20929;-91
2022/10/30 07:31:23;;;;;;;13.93;6.40;;;;;;;15.67;92.16;98526.22;5162807;23;20571;-89
2022/10/30 07:33:44;;;;;;;11.33;5.77;;;;;;;15.80;94.12;98537.41;5190095;22;20615;-89
2022/10/30 07:36:07;;;;;;;16.50;5.50;;;;;;;15.94;93.64;98531.03;5161209;23;21109;-88
2022/10/30 07:38:37;;;;;;;13.33;5.70;;;;;;;16.06;91.81;98528.19;5165924;22;20591;-90
2022/10/30 07:40:54;;;;;;;11.47;6.47;;;;;;;16.16;91.26;98529.94;5135973;23;20561;-90
2022/10/30 07:43:20;;;;;;;12.57;6.20;;;;;;;16.23;92.07;98532.91;5130556;22;20586;-90
2022/10/30 07:45:39;;;;;;;12.37;5.97;;;;;;;16.32;91.26;98535.59;5136301;23;20612;-89
2022/10/30 07:48:06;;;;;;;14.67;6.83;;;;;;;16.35;91.21;98537.16;5137575;23;21109;-91
2022/10/30 07:50:16;;;;;;;10.23;6.30;;;;;;;16.44;91.36;98526.69;5137745;23;20595;-90
2022/10/30 07:52:19;;;;;;;15.33;7.10;;;;;;;16.55;90.04;98531.84;5189010;22;21126;-90
2022/10/30 07:54:24;;;;;;;12.27;6.27;;;;;;;16.61;89.52;98526.94;5190592;22;20618;-90
2022/10/30 07:56:27;;;;;;;12.80;7.07;;;;;;;16.71;89.23;98538.31;5164363;23;21165;-90
2022/10/30 07:58:31;;;;;;;10.43;5.90;;;;;;;16.80;89.46;98534.06;5163587;23;21123;-89
2022/10/30 08:01:10;;;;;;;17.03;6.37;;;;;;;16.89;89.77;98544.66;5134339;23;21034;-90
2022/10/30 08:03:14;;;;;;;13.73;6.37;;;;;;;17.00;90.06;98539.28;5162527;23;20564;-89
2022/10/30 08:05:25;;;;;;;9.90;6.17;;;;;;;17.04;88.61;98535.41;5160872;23;20919;-89
2022/10/30 08:07:46;;;;;;;12.23;6.87;;;;;;;17.05;88.09;98534.47;5136992;23;20605;-89
2022/10/30 08:09:50;;;;;;;11.97;6.40;;;;;;;17.05;89.87;98537.09;5135679;23;20616;-88
2022/10/30 08:11:53;;;;;;;11.80;5.80;;;;;;;17.14;90.00;98536.31;5162490;23;20586;-88
2022/10/30 08:13:56;;;;;;;12.50;6.83;;;;;;;17.26;89.85;98540.50;5136854;23;21188;-88
2022/10/30 08:15:59;;;;;;;12.13;6.90;;;;;;;17.36;88.56;98547.47;5136104;23;20625;-88
2022/10/30 08:18:04;;;;;;;9.67;5.60;;;;;;;17.45;88.68;98541.38;5160834;23;20569;-90
2022/10/30 08:20:09;;;;;;;11.33;5.40;;;;;;;17.51;89.41;98544.34;5137096;23;20971;-90
2022/10/30 08:22:13;;;;;;;13.03;5.70;;;;;;;17.62;88.23;98549.50;5136511;23;21002;-89
2022/10/30 08:24:16;;;;;;;10.77;5.77;;;;;;;17.76;87.15;98549.06;5135777;23;20673;-89
2022/10/30 08:26:22;;;;;;;11.27;5.30;;;;;;;17.81;86.16;98541.56;5160758;23;20575;-89
2022/10/30 08:28:25;;;;;;;13.93;5.90;;;;;;;17.96;88.26;98543.66;5159282;23;21241;-90
2022/10/30 08:30:36;;;;;;;12.00;5.90;;;;;;;18.06;86.48;98544.50;5134332;23;20581;-88
2022/10/30 08:32:41;;;;;;;10.40;6.00;;;;;;;18.07;86.75;98540.91;5161156;23;20960;-88
2022/10/30 08:35:05;;;;;;;14.50;5.80;;;;;;;18.14;87.24;98535.91;5160174;23;20590;-88
2022/10/30 08:37:08;;;;;;;13.47;8.30;;;;;;;18.21;86.71;98537.03;5159886;23;20550;-88
2022/10/30 08:39:11;;;;;;;15.97;7.90;;;;;;;18.22;87.85;98539.53;5135724;23;20706;-88
2022/10/30 08:41:22;;;;;;;16.53;5.90;;;;;;;18.28;86.95;98541.59;5133719;23;20605;-89
2022/10/30 08:43:27;;;;;;;18.77;6.07;;;;;;;18.35;86.87;98539.22;5161873;23;21034;-89
2022/10/30 08:45:30;;;;;;;11.30;5.90;;;;;;;18.46;87.30;98539.88;5161694;23;20580;-89
2022/10/30 08:47:56;;;;;;;10.97;5.77;;;;;;;18.55;87.20;98542.53;5161365;23;20983;-88
2022/10/30 08:50:04;;;;;;;11.60;5.80;;;;;;;18.62;86.88;98535.69;5135440;23;20589;-87
2022/10/30 08:52:08;;;;;;;11.13;5.57;;;;;;;18.70;86.65;98545.53;5161174;23;20647;-89
2022/10/30 08:54:11;;;;;;;15.27;6.87;;;;;;;18.79;85.01;98537.56;5132052;23;20614;-88
2022/10/30 08:56:14;;;;;;;9.03;5.80;;;;;;;18.81;85.08;98538.28;5155169;23;20582;-88
2022/10/30 08:58:26;;;;;;;18.80;6.20;;;;;;;18.87;84.24;98543.00;5137201;23;20611;-87
2022/10/30 09:00:29;;;;;;;10.40;4.90;;;;;;;18.88;82.93;98542.00;5159931;23;21001;-88
2022/10/30 09:03:05;;;;;;;12.73;5.77;;;;;;;18.97;83.36;98549.06;5102289;22;21122;-88
2022/10/30 09:05:15;;;;;;;9.93;6.10;;;;;;;19.07;84.54;98545.44;5187201;22;20588;-87
2022/10/30 09:07:36;;;;;;;11.97;6.00;;;;;;;19.12;84.70;98540.53;5134702;23;20588;-88
2022/10/30 09:10:09;;;;;;;11.10;6.33;;;;;;;19.17;85.30;98548.03;5110285;23;20678;-88
2022/10/30 09:12:13;;;;;;;18.33;6.20;;;;;;;19.29;85.65;98545.06;5134654;23;21030;-87
2022/10/30 09:14:19;;;;;;;10.20;5.40;;;;;;;19.40;83.12;98543.03;5133587;23;20622;-89
2022/10/30 09:16:22;;;;;;;11.60;5.37;;;;;;;19.52;82.91;98538.38;5135629;23;20619;-88
2022/10/30 09:18:25;;;;;;;11.50;5.30;;;;;;;19.65;84.05;98539.69;5136894;23;20581;-89
2022/10/30 09:20:31;;;;;;;9.20;5.40;;;;;;;19.78;83.84;98544.59;5183391;22;20589;-88
2022/10/30 09:22:34;;;;;;;10.97;5.63;;;;;;;19.84;83.39;98537.72;5130520;23;20561;-88
2022/10/30 09:24:38;;;;;;;14.30;4.70;;;;;;;19.95;84.03;98542.84;5161272;23;20610;-89
2022/10/30 09:27:00;;;;;;;14.43;5.30;;;;;;;20.06;83.28;98547.06;5187778;22;20569;-88
2022/10/30 09:29:03;;;;;;;12.80;5.67;;;;;;;20.15;81.85;98540.84;5133934;23;21532;-89
2022/10/30 09:31:24;;;;;;;10.37;5.00;;;;;;;20.25;83.18;98541.59;5158202;23;20586;-88
2022/10/30 09:33:29;;;;;;;15.30;5.40;;;;;;;20.36;83.34;98539.53;5132747;23;20576;-89
2022/10/30 09:35:56;;;;;;;18.83;10.43;;;;;;;20.45;83.32;98542.09;5116569;23;20671;-89
2022/10/30 09:38:00;;;;;;;10.43;6.33;;;;;;;20.52;84.14;98548.44;5158695;23;20576;-89
2022/10/30 09:40:05;;;;;;;10.90;5.70;;;;;;;20.63;82.58;98552.66;5184302;22;20582;-88
2022/10/30 09:42:24;;;;;;;14.63;5.23;;;;;;;20.68;81.48;98550.41;5157366;23;20826;-89
2022/10/30 09:44:41;;;;;;;9.53;4.90;;;;;;;20.76;81.40;98558.41;5162493;23;20581;-89
2022/10/30 09:47:02;;;;;;;10.80;5.20;;;;;;;20.82;80.60;98553.28;5135302;23;20585;-89
2022/10/30 09:49:17;;;;;;;12.60;5.50;;;;;;;20.89;82.06;98555.16;5137491;23;20649;-88
2022/10/30 09:51:41;;;;;;;15.73;6.00;;;;;;;21.02;82.86;98554.78;5164299;23;20590;-89
2022/10/30 09:53:55;;;;;;;11.53;4.90;;;;;;;21.08;80.26;98562.06;5139283;23;20575;-89